Time;durP1;ratioP1;P1;durP2;ratioP2;P2;SDS_P1;SDS_P2;PMS_P1;PMS_P2;Temp;Humidity;BMP_temperature;BMP_pressure;BME280_temperature;BME280_humidity;BME280_pressure;Samples;Min_cycle;Max_cycle;Signal;HPM_P1;HPM_P2
2024/03/19 00:00:45;;;;;;;1.00;1.00;;;7.30;99.90;;;;;;5115365;28;20208;-59
2024/03/19 00:03:11;;;;;;;1.02;1.00;;;7.40;99.90;;;;;;5109765;27;20320;-58
2024/03/19 00:05:36;;;;;;;0.80;0.77;;;7.30;99.90;;;;;;5115181;28;20196;-59
2024/03/19 00:08:02;;;;;;;0.87;0.87;;;7.40;99.90;;;;;;5114852;28;20524;-59
2024/03/19 00:10:28;;;;;;;1.17;0.53;;;7.40;99.90;;;;;;5109999;28;20226;-59
2024/03/19 00:12:53;;;;;;;0.90;0.70;;;7.30;99.90;;;;;;5113529;28;20183;-59
2024/03/19 00:15:19;;;;;;;0.60;0.60;;;7.30;99.90;;;;;;5115176;28;20183;-59
2024/03/19 00:17:45;;;;;;;1.57;0.73;;;7.30;99.90;;;;;;5114897;28;20611;-59
2024/03/19 00:20:11;;;;;;;0.85;0.70;;;7.40;99.90;;;;;;5114636;28;20206;-59
2024/03/19 00:22:37;;;;;;;0.70;0.60;;;7.40;99.90;;;;;;5114728;28;20656;-59
2024/03/19 00:25:05;;;;;;;0.70;0.70;;;7.50;99.90;;;;;;5114946;28;20397;-59
2024/03/19 00:27:32;;;;;;;0.75;0.75;;;7.50;99.90;;;;;;5114779;28;20198;-59
2024/03/19 00:29:58;;;;;;;0.70;0.68;;;7.50;99.90;;;;;;5113786;28;20224;-59
2024/03/19 00:32:24;;;;;;;1.47;1.10;;;7.50;99.90;;;;;;5114733;28;20180;-59
2024/03/19 00:34:49;;;;;;;0.70;0.70;;;7.50;99.90;;;;;;5114721;28;20504;-59
2024/03/19 00:37:15;;;;;;;0.70;0.70;;;7.50;99.90;;;;;;5114367;28;20454;-59
2024/03/19 00:39:41;;;;;;;0.90;0.90;;;7.50;99.90;;;;;;5112079;28;20253;-59
2024/03/19 00:42:07;;;;;;;1.47;0.90;;;7.60;99.90;;;;;;5114738;28;20175;-59
2024/03/19 00:44:33;;;;;;;1.40;1.25;;;7.60;99.90;;;;;;5114546;28;20504;-59
2024/03/19 00:46:59;;;;;;;1.27;0.90;;;7.60;99.90;;;;;;5114423;28;20233;-59
2024/03/19 00:49:26;;;;;;;2.80;1.30;;;7.50;99.90;;;;;;5114210;28;20172;-59
2024/03/19 00:51:52;;;;;;;1.10;1.00;;;7.60;99.90;;;;;;5114628;28;20626;-59
2024/03/19 00:54:18;;;;;;;0.95;0.95;;;7.70;99.90;;;;;;5114197;28;20165;-59
2024/03/19 00:56:43;;;;;;;0.83;0.83;;;7.80;99.90;;;;;;5114142;28;20192;-59
2024/03/19 00:59:09;;;;;;;1.27;1.23;;;7.80;99.90;;;;;;5113916;28;20405;-59
2024/03/19 01:01:35;;;;;;;0.93;0.80;;;7.80;99.90;;;;;;5114635;28;20168;-59
2024/03/19 01:04:04;;;;;;;0.75;0.75;;;7.80;99.90;;;;;;5114101;28;20172;-59
2024/03/19 01:06:31;;;;;;;4.28;0.82;;;8.10;99.90;;;;;;5113940;28;20255;-59
2024/03/19 01:08:57;;;;;;;1.17;0.98;;;7.90;99.90;;;;;;5113707;28;20161;-59
2024/03/19 01:11:23;;;;;;;6.47;3.20;;;8.00;99.90;;;;;;5114103;28;20180;-59
2024/03/19 01:13:49;;;;;;;13.40;7.57;;;7.90;99.90;;;;;;5113954;28;20199;-59
2024/03/19 01:16:15;;;;;;;20.33;5.93;;;8.00;99.90;;;;;;5108581;28;20723;-59
2024/03/19 01:18:40;;;;;;;9.93;4.00;;;8.00;99.90;;;;;;5113424;28;20184;-59
2024/03/19 01:21:06;;;;;;;12.03;3.97;;;8.00;99.90;;;;;;5113611;28;20202;-59
2024/03/19 01:23:32;;;;;;;13.90;4.10;;;8.00;99.90;;;;;;5113694;28;20168;-59
2024/03/19 01:25:57;;;;;;;3.37;2.00;;;8.10;99.90;;;;;;5113841;28;20213;-59
2024/03/19 01:28:23;;;;;;;5.63;2.70;;;8.00;99.90;;;;;;5113475;28;20199;-59
2024/03/19 01:30:49;;;;;;;2.37;1.80;;;8.10;99.90;;;;;;5113595;28;20175;-59
2024/03/19 01:33:14;;;;;;;4.83;2.63;;;8.10;99.90;;;;;;5113535;28;20187;-59
2024/03/19 01:35:40;;;;;;;2.13;1.83;;;8.20;99.90;;;;;;5113491;28;20176;-59
2024/03/19 01:38:06;;;;;;;4.05;1.40;;;8.20;99.90;;;;;;5113188;28;20294;-59
2024/03/19 01:40:32;;;;;;;3.80;1.40;;;8.20;99.90;;;;;;5113316;28;20651;-59
2024/03/19 01:42:59;;;;;;;0.93;0.93;;;8.20;99.90;;;;;;5112283;28;20402;-59
2024/03/19 01:45:24;;;;;;;0.93;0.93;;;8.80;99.90;;;;;;5113302;28;20203;-59
2024/03/19 01:47:51;;;;;;;1.37;1.10;;;8.30;99.90;;;;;;5113109;28;20720;-59
2024/03/19 01:50:17;;;;;;;1.05;0.98;;;8.30;99.90;;;;;;5113104;28;20516;-59
2024/03/19 01:52:52;;;;;;;0.93;0.90;;;8.20;99.90;;;;;;5113139;28;20241;-59
2024/03/19 01:55:20;;;;;;;0.85;0.80;;;8.20;99.90;;;;;;5113095;28;20168;-59
2024/03/19 01:57:47;;;;;;;1.15;0.63;;;8.20;99.90;;;;;;5112936;28;20192;-59
2024/03/19 02:00:13;;;;;;;2.70;0.93;;;8.10;99.90;;;;;;5112710;28;20283;-59
2024/03/19 02:02:39;;;;;;;1.20;1.10;;;7.90;99.90;;;;;;5112812;28;20176;-59
2024/03/19 02:05:06;;;;;;;0.68;0.68;;;7.70;99.90;;;;;;5111427;28;20248;-59
2024/03/19 02:07:33;;;;;;;0.98;0.98;;;7.70;99.90;;;;;;5107984;28;20222;-59
2024/03/19 02:09:59;;;;;;;0.70;0.70;;;7.70;99.90;;;;;;5112585;28;20182;-59
2024/03/19 02:12:26;;;;;;;3.15;1.02;;;7.70;99.90;;;;;;5112880;28;20211;-59
2024/03/19 02:14:53;;;;;;;1.42;1.15;;;7.60;99.90;;;;;;5112744;28;20196;-59
2024/03/19 02:17:20;;;;;;;2.70;0.90;;;7.50;99.90;;;;;;5112564;28;20672;-59
2024/03/19 02:19:46;;;;;;;1.30;1.20;;;7.50;99.90;;;;;;5112350;28;20199;-59
2024/03/19 02:22:12;;;;;;;0.70;0.70;;;7.60;99.90;;;;;;5112578;28;20175;-58
2024/03/19 02:24:40;;;;;;;1.33;1.23;;;7.30;99.90;;;;;;5107566;28;20211;-59
2024/03/19 02:27:06;;;;;;;0.80;0.80;;;7.60;99.90;;;;;;5112515;28;20429;-59
2024/03/19 02:29:32;;;;;;;1.00;1.00;;;7.60;99.90;;;;;;5112312;28;20171;-59
2024/03/19 02:31:58;;;;;;;3.10;1.13;;;7.50;99.90;;;;;;5112373;28;20179;-59
2024/03/19 02:34:23;;;;;;;1.37;1.10;;;7.40;99.90;;;;;;5112475;28;20187;-59
2024/03/19 02:36:49;;;;;;;1.00;1.00;;;7.40;99.90;;;;;;5112270;28;20210;-59
2024/03/19 02:39:15;;;;;;;1.23;1.10;;;7.50;99.90;;;;;;5111986;28;20172;-59
2024/03/19 02:41:40;;;;;;;1.23;0.87;;;7.60;99.90;;;;;;5112448;28;20213;-59
2024/03/19 02:44:06;;;;;;;1.00;0.90;;;7.70;99.90;;;;;;5112854;28;20247;-59
2024/03/19 02:46:32;;;;;;;1.63;1.53;;;7.90;99.90;;;;;;5112193;28;20172;-59
2024/03/19 02:48:58;;;;;;;1.33;1.23;;;7.70;99.90;;;;;;5112001;28;20172;-59
2024/03/19 02:51:24;;;;;;;1.63;1.53;;;7.80;99.90;;;;;;5112416;28;20409;-59
2024/03/19 02:53:50;;;;;;;0.95;0.70;;;7.80;99.90;;;;;;5111834;28;20186;-59
2024/03/19 02:56:16;;;;;;;1.40;0.67;;;7.80;99.90;;;;;;5112224;28;20255;-59
2024/03/19 02:58:42;;;;;;;2.17;1.63;;;7.90;99.90;;;;;;5111822;28;20470;-59
2024/03/19 03:01:07;;;;;;;1.37;1.27;;;7.90;99.90;;;;;;5112048;28;20569;-59
2024/03/19 03:03:34;;;;;;;2.40;1.07;;;7.90;99.90;;;;;;5112254;28;20171;-59
2024/03/19 03:05:59;;;;;;;1.40;1.30;;;7.90;99.90;;;;;;5112118;28;20167;-59
2024/03/19 03:08:26;;;;;;;1.80;1.10;;;8.00;99.90;;;;;;5111675;28;20192;-59
2024/03/19 03:10:52;;;;;;;1.13;0.98;;;8.00;99.90;;;;;;5112092;28;20398;-59
2024/03/19 03:13:18;;;;;;;1.50;1.40;;;8.10;99.90;;;;;;5111983;28;20600;-59
2024/03/19 03:15:44;;;;;;;2.40;1.77;;;8.00;99.90;;;;;;5112099;28;20179;-59
2024/03/19 03:18:12;;;;;;;2.37;1.67;;;8.00;99.90;;;;;;5111864;28;20188;-59
2024/03/19 03:20:38;;;;;;;3.40;2.80;;;8.10;99.90;;;;;;5111948;28;20204;-59
2024/03/19 03:23:04;;;;;;;6.80;2.40;;;8.20;99.90;;;;;;5112113;28;20260;-59
2024/03/19 03:25:32;;;;;;;4.03;2.70;;;8.10;99.90;;;;;;5111981;28;20164;-58
2024/03/19 03:27:58;;;;;;;3.90;2.22;;;8.10;99.90;;;;;;5111661;28;20429;-59
2024/03/19 03:30:24;;;;;;;14.05;2.72;;;8.10;99.90;;;;;;5111972;28;20259;-59
2024/03/19 03:32:50;;;;;;;7.78;2.63;;;8.10;99.90;;;;;;5108922;28;20251;-59
2024/03/19 03:35:19;;;;;;;2.85;2.00;;;8.10;99.90;;;;;;5109560;28;20586;-59
2024/03/19 03:37:45;;;;;;;2.00;1.73;;;8.10;99.90;;;;;;5111673;28;20287;-59
2024/03/19 03:40:13;;;;;;;2.95;1.95;;;8.10;99.90;;;;;;5111580;28;20286;-59
2024/03/19 03:42:41;;;;;;;2.58;2.13;;;8.00;99.90;;;;;;5111672;28;20255;-59
2024/03/19 03:45:07;;;;;;;4.30;2.22;;;7.90;99.90;;;;;;5110470;28;20176;-59
2024/03/19 03:47:33;;;;;;;2.50;1.90;;;7.70;99.90;;;;;;5111570;28;20275;-59
2024/03/19 03:49:58;;;;;;;1.77;1.40;;;7.70;99.90;;;;;;5111454;28;20230;-59
2024/03/19 03:52:26;;;;;;;1.80;1.47;;;7.70;99.90;;;;;;5111693;28;20222;-59
2024/03/19 03:54:52;;;;;;;1.83;1.70;;;7.70;99.90;;;;;;5111580;28;20192;-59
2024/03/19 03:57:17;;;;;;;1.10;1.00;;;7.70;99.90;;;;;;5111633;28;20203;-59
2024/03/19 03:59:43;;;;;;;1.23;1.10;;;7.60;99.90;;;;;;5111293;28;20476;-59
2024/03/19 04:02:09;;;;;;;1.50;1.40;;;7.60;99.90;;;;;;5111448;28;20638;-59
2024/03/19 04:04:34;;;;;;;1.52;1.00;;;7.50;99.90;;;;;;5111740;28;20554;-59
2024/03/19 04:07:00;;;;;;;1.07;1.00;;;7.30;99.90;;;;;;5114544;28;20188;-59
2024/03/19 04:09:26;;;;;;;4.67;1.00;;;7.30;99.90;;;;;;5114939;28;20175;-59
2024/03/19 04:11:51;;;;;;;1.53;1.00;;;7.30;99.90;;;;;;5115133;28;20514;-59
2024/03/19 04:14:17;;;;;;;2.20;1.40;;;7.30;99.90;;;;;;5115079;28;20175;-58
2024/03/19 04:16:42;;;;;;;1.30;0.90;;;7.20;99.90;;;;;;5114867;28;20244;-59
2024/03/19 04:19:08;;;;;;;2.20;0.90;;;7.00;99.90;;;;;;5114645;28;20164;-59
2024/03/19 04:21:34;;;;;;;0.83;0.83;;;7.00;99.90;;;;;;5114947;28;20174;-59
2024/03/19 04:24:01;;;;;;;1.27;1.17;;;7.00;99.90;;;;;;5114968;28;20233;-59
2024/03/19 04:26:27;;;;;;;2.55;1.00;;;7.20;99.90;;;;;;5114843;28;20822;-59
2024/03/19 04:28:54;;;;;;;4.20;1.30;;;7.00;99.90;;;;;;5114614;28;20168;-59
2024/03/19 04:31:20;;;;;;;8.68;2.00;;;7.00;99.90;;;;;;5114604;28;20180;-59
2024/03/19 04:33:46;;;;;;;1.57;1.10;;;6.90;99.90;;;;;;5114946;28;20187;-59
2024/03/19 04:36:12;;;;;;;1.00;0.70;;;6.90;99.90;;;;;;5114649;28;20262;-59
2024/03/19 04:38:37;;;;;;;1.25;1.15;;;6.90;99.90;;;;;;5108915;28;20598;-59
2024/03/19 04:41:03;;;;;;;1.20;0.73;;;6.70;99.90;;;;;;5114604;28;20222;-59
2024/03/19 04:43:29;;;;;;;2.50;0.70;;;6.60;99.90;;;;;;5114558;28;20645;-59
2024/03/19 04:45:54;;;;;;;2.23;0.70;;;6.50;99.90;;;;;;5114423;28;20235;-59
2024/03/19 04:48:20;;;;;;;2.80;1.10;;;6.50;99.90;;;;;;5114153;28;20182;-59
2024/03/19 04:50:46;;;;;;;0.50;0.50;;;6.50;99.90;;;;;;5114490;28;20217;-59
2024/03/19 04:53:11;;;;;;;0.60;0.60;;;6.50;99.90;;;;;;5114300;28;20178;-58
2024/03/19 04:55:37;;;;;;;6.60;0.97;;;6.50;99.90;;;;;;5114359;28;20170;-59
2024/03/19 04:58:05;;;;;;;0.60;0.60;;;6.40;99.90;;;;;;5114025;28;20237;-59
2024/03/19 05:00:30;;;;;;;0.60;0.60;;;6.30;99.90;;;;;;5113888;28;20228;-59
2024/03/19 05:02:56;;;;;;;2.20;1.27;;;6.20;99.90;;;;;;5114367;28;20200;-59
2024/03/19 05:05:22;;;;;;;1.33;0.60;;;6.10;99.90;;;;;;5114099;28;20654;-59
2024/03/19 05:07:47;;;;;;;0.70;0.70;;;6.10;99.90;;;;;;5113983;28;20191;-59
2024/03/19 05:10:13;;;;;;;1.63;1.37;;;6.00;99.90;;;;;;5113755;28;20592;-59
2024/03/19 05:12:39;;;;;;;0.73;0.70;;;6.10;99.90;;;;;;5113996;28;20654;-59
2024/03/19 05:15:06;;;;;;;0.60;0.60;;;6.00;99.90;;;;;;5113750;28;20174;-59
2024/03/19 05:17:32;;;;;;;1.10;1.10;;;6.00;99.90;;;;;;5113697;28;20279;-58
2024/03/19 05:19:58;;;;;;;0.65;0.63;;;6.00;99.90;;;;;;5113556;28;20200;-59
2024/03/19 05:22:24;;;;;;;0.50;0.40;;;5.90;99.90;;;;;;5113880;28;20167;-59
2024/03/19 05:24:50;;;;;;;0.47;0.47;;;5.90;99.90;;;;;;5113769;28;20661;-59
2024/03/19 05:27:16;;;;;;;0.80;0.80;;;5.90;99.90;;;;;;5113625;28;20188;-59
2024/03/19 05:29:41;;;;;;;2.22;2.08;;;5.90;99.90;;;;;;5113255;28;20406;-59
2024/03/19 05:32:08;;;;;;;3.35;2.75;;;5.90;99.90;;;;;;5113718;28;20228;-59
2024/03/19 05:34:34;;;;;;;1.80;1.70;;;5.80;99.90;;;;;;5113567;28;20597;-59
2024/03/19 05:37:00;;;;;;;3.40;1.05;;;5.90;99.90;;;;;;5117109;22;20446;-59
2024/03/19 05:39:26;;;;;;;0.77;0.77;;;5.70;99.90;;;;;;5068972;28;20212;-59
2024/03/19 05:41:51;;;;;;;1.00;0.80;;;5.80;99.90;;;;;;5072486;28;20423;-59
2024/03/19 05:44:17;;;;;;;1.33;1.00;;;5.90;99.90;;;;;;5072497;28;20169;-59
2024/03/19 05:46:43;;;;;;;0.50;0.50;;;6.00;99.90;;;;;;5072637;28;20584;-59
2024/03/19 05:49:09;;;;;;;0.82;0.60;;;6.00;99.90;;;;;;5072227;28;20575;-59
2024/03/19 05:51:35;;;;;;;0.87;0.87;;;6.00;99.90;;;;;;5072079;28;20177;-60
2024/03/19 05:54:01;;;;;;;0.70;0.70;;;5.90;99.90;;;;;;5070931;28;20420;-59
2024/03/19 05:56:26;;;;;;;0.83;0.83;;;5.90;99.90;;;;;;5072149;28;20550;-59
2024/03/19 05:58:52;;;;;;;1.00;0.87;;;5.90;99.90;;;;;;5072093;28;20707;-59
2024/03/19 06:01:18;;;;;;;0.80;0.80;;;5.90;99.90;;;;;;5072271;28;20212;-59
2024/03/19 06:03:43;;;;;;;0.70;0.70;;;5.90;99.90;;;;;;5072112;28;20447;-59
2024/03/19 06:06:09;;;;;;;0.80;0.80;;;5.90;99.90;;;;;;5072177;28;20173;-59
2024/03/19 06:08:39;;;;;;;0.83;0.70;;;6.10;99.90;;;;;;5071756;28;20193;-59
2024/03/19 06:11:05;;;;;;;1.33;0.80;;;6.10;99.90;;;;;;5072371;28;20461;-59
2024/03/19 06:13:32;;;;;;;1.20;0.60;;;6.10;99.90;;;;;;5072168;28;20264;-59
2024/03/19 06:15:58;;;;;;;0.93;0.68;;;6.20;99.90;;;;;;5072220;28;20174;-59
2024/03/19 06:18:23;;;;;;;0.63;0.63;;;6.20;99.90;;;;;;5071655;28;20335;-61
2024/03/19 06:20:49;;;;;;;1.00;0.90;;;6.30;99.90;;;;;;5071991;28;20237;-59
2024/03/19 06:23:15;;;;;;;1.90;0.97;;;6.40;99.90;;;;;;5071966;28;20174;-59
2024/03/19 06:25:40;;;;;;;1.00;1.00;;;6.40;99.90;;;;;;5072012;28;20173;-59
2024/03/19 06:28:06;;;;;;;1.00;0.70;;;6.40;99.90;;;;;;5071149;28;20280;-59
2024/03/19 06:30:33;;;;;;;0.77;0.77;;;6.50;99.90;;;;;;5071885;28;20223;-59
2024/03/19 06:32:58;;;;;;;2.58;1.13;;;6.60;99.90;;;;;;5071951;28;20207;-59
2024/03/19 06:35:30;;;;;;;2.40;0.93;;;6.70;99.90;;;;;;5071901;28;20172;-60
2024/03/19 06:37:56;;;;;;;0.98;0.90;;;6.70;99.90;;;;;;5071481;28;20645;-58
2024/03/19 06:40:22;;;;;;;1.17;0.93;;;6.80;99.90;;;;;;5071775;28;20277;-59
2024/03/19 06:42:47;;;;;;;4.40;4.00;;;6.80;99.90;;;;;;5071815;28;20219;-59
2024/03/19 06:45:13;;;;;;;2.77;2.50;;;6.70;99.90;;;;;;5071765;28;20260;-60
2024/03/19 06:47:38;;;;;;;6.70;5.10;;;6.70;99.90;;;;;;5071649;28;20191;-60
2024/03/19 06:50:06;;;;;;;3.70;3.40;;;6.70;99.90;;;;;;5071437;28;20197;-59
2024/03/19 06:52:33;;;;;;;3.72;3.42;;;6.70;99.90;;;;;;5071654;28;20260;-60
2024/03/19 06:54:59;;;;;;;2.60;2.42;;;6.80;99.90;;;;;;5071608;28;20181;-59
2024/03/19 06:57:25;;;;;;;2.30;1.90;;;7.10;99.90;;;;;;5071733;28;20247;-59
2024/03/19 06:59:50;;;;;;;2.00;1.90;;;7.50;99.90;;;;;;5071283;28;20435;-59
2024/03/19 07:02:18;;;;;;;1.23;1.13;;;7.90;99.90;;;;;;5066654;28;20208;-59
2024/03/19 07:04:44;;;;;;;1.80;1.00;;;8.30;99.90;;;;;;5071441;28;20566;-60
2024/03/19 07:07:13;;;;;;;1.43;1.20;;;9.20;99.90;;;;;;5071711;28;20177;-60
2024/03/19 07:09:40;;;;;;;1.50;1.40;;;9.50;99.90;;;;;;5071281;28;20410;-60
2024/03/19 07:12:06;;;;;;;5.50;2.40;;;10.20;99.90;;;;;;5071658;28;20802;-62
2024/03/19 07:14:31;;;;;;;3.20;2.50;;;11.00;99.90;;;;;;5071448;28;20408;-62
2024/03/19 07:16:57;;;;;;;2.80;2.27;;;12.60;99.90;;;;;;5071334;28;20410;-61
2024/03/19 07:19:23;;;;;;;2.80;2.07;;;12.80;98.20;;;;;;5071257;28;20174;-62
2024/03/19 07:21:48;;;;;;;2.30;2.10;;;14.00;96.70;;;;;;5071745;28;20169;-62
2024/03/19 07:24:14;;;;;;;2.93;1.60;;;15.30;94.80;;;;;;5071506;28;20169;-62
2024/03/19 07:26:40;;;;;;;1.13;1.10;;;16.80;93.10;;;;;;5071471;28;20166;-63
2024/03/19 07:29:05;;;;;;;1.20;0.93;;;18.40;91.00;;;;;;5070946;28;20185;-63
2024/03/19 07:31:31;;;;;;;1.30;1.20;;;19.70;84.60;;;;;;5071389;28;20206;-62
2024/03/19 07:33:57;;;;;;;1.17;0.83;;;20.70;81.60;;;;;;5071213;28;20256;-61
2024/03/19 07:36:23;;;;;;;5.57;1.67;;;22.10;77.50;;;;;;5071257;28;20980;-61
2024/03/19 07:38:49;;;;;;;1.57;1.37;;;23.50;72.20;;;;;;5070790;28;20457;-61
2024/03/19 07:41:14;;;;;;;0.83;0.70;;;24.70;67.50;;;;;;5074615;28;20542;-61
2024/03/19 07:43:40;;;;;;;0.77;0.70;;;25.80;60.10;;;;;;5074580;28;20654;-61
2024/03/19 07:46:06;;;;;;;1.60;0.90;;;26.70;57.90;;;;;;5074139;28;20172;-61
2024/03/19 07:48:32;;;;;;;1.60;0.90;;;27.50;54.20;;;;;;5074433;28;20201;-62
2024/03/19 07:50:58;;;;;;;1.33;1.23;;;28.00;52.70;;;;;;5074748;28;20177;-62
2024/03/19 07:53:25;;;;;;;1.03;0.80;;;28.20;51.40;;;;;;5074913;28;20414;-62
2024/03/19 07:55:50;;;;;;;1.70;1.60;;;28.10;50.30;;;;;;5074893;28;20174;-61
2024/03/19 07:58:16;;;;;;;0.70;0.70;;;28.30;48.70;;;;;;5074502;28;20937;-61
2024/03/19 08:00:41;;;;;;;2.30;0.70;;;28.10;49.50;;;;;;5074415;28;20208;-61
2024/03/19 08:03:07;;;;;;;0.70;0.70;;;28.20;48.50;;;;;;5074644;28;20452;-61
2024/03/19 08:05:33;;;;;;;1.90;0.50;;;28.40;48.10;;;;;;5074853;28;20669;-61
2024/03/19 08:07:59;;;;;;;0.90;0.80;;;28.80;47.20;;;;;;5074355;28;20253;-62
2024/03/19 08:10:24;;;;;;;1.17;0.80;;;29.10;46.10;;;;;;5074525;28;20180;-61
2024/03/19 08:12:50;;;;;;;1.73;0.80;;;29.40;45.10;;;;;;5074567;28;20161;-61
2024/03/19 08:15:16;;;;;;;1.00;0.90;;;29.00;45.80;;;;;;5074479;28;20180;-61
2024/03/19 08:17:42;;;;;;;0.67;0.67;;;29.00;46.60;;;;;;5074577;28;20971;-61
2024/03/19 08:20:12;;;;;;;0.50;0.50;;;29.20;45.60;;;;;;5074003;28;20292;-61
2024/03/19 08:22:40;;;;;;;1.47;0.70;;;29.30;46.00;;;;;;5074467;28;20174;-61
2024/03/19 08:25:10;;;;;;;1.03;0.73;;;29.40;45.40;;;;;;5074046;28;20483;-61
2024/03/19 08:27:36;;;;;;;1.20;0.70;;;28.60;45.40;;;;;;5074078;28;20420;-61
2024/03/19 08:30:03;;;;;;;0.93;0.67;;;27.70;47.30;;;;;;5073725;28;20951;-62
2024/03/19 08:32:29;;;;;;;1.07;0.80;;;27.20;49.00;;;;;;5074053;28;20177;-61
2024/03/19 08:34:54;;;;;;;1.00;0.77;;;26.70;48.50;;;;;;5074095;28;20415;-61
2024/03/19 08:37:20;;;;;;;1.00;0.70;;;26.30;48.90;;;;;;5073867;28;20201;-61
2024/03/19 08:39:45;;;;;;;1.43;0.93;;;26.20;49.10;;;;;;5073759;28;20490;-60
2024/03/19 08:42:11;;;;;;;0.70;0.70;;;26.40;49.70;;;;;;5074133;28;20248;-60
2024/03/19 08:44:37;;;;;;;0.80;0.80;;;25.90;48.00;;;;;;5073898;28;20632;-60
2024/03/19 08:47:03;;;;;;;1.47;0.73;;;24.70;64.40;;;;;;5073753;28;20169;-60
2024/03/19 08:49:30;;;;;;;0.60;0.60;;;24.50;51.30;;;;;;5073731;28;20274;-61
2024/03/19 08:51:56;;;;;;;1.17;0.70;;;23.90;51.80;;;;;;5073098;28;20427;-61
2024/03/19 08:54:21;;;;;;;0.60;0.60;;;23.70;52.60;;;;;;5073646;28;20412;-62
2024/03/19 08:56:47;;;;;;;0.80;0.70;;;24.00;53.70;;;;;;5073726;28;20494;-61
2024/03/19 08:59:13;;;;;;;0.80;0.80;;;25.10;54.30;;;;;;5073169;28;20674;-61
2024/03/19 09:01:39;;;;;;;0.50;0.50;;;26.70;51.50;;;;;;5073435;28;20215;-62
2024/03/19 09:04:06;;;;;;;0.70;0.70;;;27.80;48.30;;;;;;5073470;28;20408;-61
2024/03/19 09:06:32;;;;;;;1.17;0.63;;;27.00;48.10;;;;;;5073483;28;20177;-61
2024/03/19 09:08:58;;;;;;;0.97;0.90;;;26.10;48.10;;;;;;5073138;28;20424;-61
2024/03/19 09:11:24;;;;;;;1.40;0.60;;;25.30;49.10;;;;;;5073451;28;20498;-61
2024/03/19 09:13:49;;;;;;;1.50;0.50;;;25.10;49.80;;;;;;5073180;28;20827;-61
2024/03/19 09:16:15;;;;;;;0.80;0.50;;;25.20;48.40;;;;;;5072998;28;20173;-61
2024/03/19 09:18:42;;;;;;;0.70;0.70;;;25.90;47.50;;;;;;5072998;28;20288;-61
2024/03/19 09:21:09;;;;;;;0.50;0.50;;;26.00;48.10;;;;;;5073322;28;20231;-61
2024/03/19 09:23:36;;;;;;;0.60;0.60;;;26.60;48.20;;;;;;5073103;28;20410;-61
2024/03/19 09:26:02;;;;;;;0.87;0.50;;;27.20;48.00;;;;;;5072242;28;20457;-61
2024/03/19 09:28:31;;;;;;;0.50;0.50;;;27.20;47.50;;;;;;5072236;28;20469;-61
2024/03/19 09:30:59;;;;;;;1.13;0.67;;;27.00;46.30;;;;;;5072792;28;20420;-61
2024/03/19 09:33:28;;;;;;;0.47;0.47;;;25.70;48.20;;;;;;5071966;28;20945;-61
2024/03/19 09:35:54;;;;;;;0.90;0.50;;;25.20;49.40;;;;;;5072897;28;20410;-61
2024/03/19 09:38:20;;;;;;;0.80;0.70;;;24.90;49.30;;;;;;5072404;28;20519;-61
2024/03/19 09:40:58;;;;;;;0.53;0.53;;;24.60;50.40;;;;;;5072678;28;20601;-61
2024/03/19 09:43:24;;;;;;;0.63;0.63;;;24.40;50.10;;;;;;5072655;28;20161;-61
2024/03/19 09:45:51;;;;;;;0.60;0.50;;;24.70;50.80;;;;;;5072678;28;20400;-61
2024/03/19 09:48:19;;;;;;;0.50;0.50;;;25.60;49.30;;;;;;5072474;28;20492;-61
2024/03/19 09:50:45;;;;;;;1.37;0.70;;;26.00;48.00;;;;;;5072524;28;20487;-61
2024/03/19 09:53:26;;;;;;;0.50;0.40;;;25.70;47.00;;;;;;5072508;28;20846;-61
2024/03/19 09:55:53;;;;;;;0.50;0.50;;;25.60;48.00;;;;;;5072764;28;20412;-61
2024/03/19 09:58:23;;;;;;;0.80;0.60;;;25.30;48.10;;;;;;5072318;28;20424;-61
2024/03/19 10:00:52;;;;;;;2.73;0.60;;;25.30;49.10;;;;;;5072450;28;20463;-61
2024/03/19 10:03:17;;;;;;;0.80;0.50;;;26.10;48.40;;;;;;5071596;28;20412;-61
2024/03/19 10:05:43;;;;;;;2.03;0.70;;;26.30;46.90;;;;;;5072384;28;20438;-61
2024/03/19 10:08:14;;;;;;;0.60;0.50;;;25.50;47.00;;;;;;5071986;28;20185;-61
2024/03/19 10:10:40;;;;;;;0.50;0.50;;;25.20;48.60;;;;;;5072096;28;20174;-61
2024/03/19 10:13:11;;;;;;;0.50;0.40;;;25.40;49.00;;;;;;5072104;28;20929;-61
2024/03/19 10:15:37;;;;;;;0.77;0.70;;;25.90;46.80;;;;;;5072291;28;20912;-61
2024/03/19 10:18:06;;;;;;;1.13;0.70;;;26.30;45.80;;;;;;5071913;28;20431;-61
2024/03/19 10:20:32;;;;;;;1.83;0.60;;;26.60;46.90;;;;;;5071729;28;20228;-61
2024/03/19 10:23:00;;;;;;;0.60;0.60;;;26.90;43.80;;;;;;5071961;28;20424;-61
2024/03/19 10:25:26;;;;;;;0.70;0.60;;;27.10;44.70;;;;;;5072001;28;20469;-61
2024/03/19 10:27:52;;;;;;;0.63;0.50;;;27.30;43.90;;;;;;5071903;28;20415;-61
2024/03/19 10:30:21;;;;;;;0.50;0.50;;;26.80;43.60;;;;;;5071698;28;20486;-61
2024/03/19 10:32:49;;;;;;;0.87;0.60;;;26.00;44.50;;;;;;5071873;28;20188;-61
2024/03/19 10:35:19;;;;;;;0.57;0.57;;;25.20;45.00;;;;;;5071756;28;20464;-60
2024/03/19 10:37:49;;;;;;;1.63;0.60;;;24.70;47.40;;;;;;5071794;28;20459;-60
2024/03/19 10:40:16;;;;;;;0.57;0.57;;;24.20;46.00;;;;;;5071852;28;20443;-61
2024/03/19 10:42:44;;;;;;;0.50;0.50;;;23.90;47.70;;;;;;5071715;28;20411;-61
2024/03/19 10:45:21;;;;;;;1.13;0.50;;;23.90;47.00;;;;;;5071767;28;20395;-61
2024/03/19 10:47:51;;;;;;;0.50;0.47;;;23.40;47.40;;;;;;5071624;28;20802;-61
2024/03/19 10:50:19;;;;;;;1.27;0.43;;;23.00;47.50;;;;;;5071465;28;20880;-61
2024/03/19 10:53:03;;;;;;;1.17;0.73;;;22.50;47.00;;;;;;5071740;28;20481;-61
2024/03/19 10:55:32;;;;;;;0.60;0.57;;;22.20;48.10;;;;;;5071724;28;20399;-61
2024/03/19 10:58:04;;;;;;;0.70;0.70;;;22.20;49.80;;;;;;5071381;28;20432;-61
2024/03/19 11:00:31;;;;;;;1.73;0.80;;;22.20;50.80;;;;;;5071588;28;20827;-61
2024/03/19 11:03:01;;;;;;;0.73;0.50;;;21.80;47.30;;;;;;5071641;28;20383;-61
2024/03/19 11:05:27;;;;;;;0.50;0.50;;;21.40;51.80;;;;;;5071752;28;20413;-61
2024/03/19 11:07:57;;;;;;;0.40;0.40;;;21.00;51.50;;;;;;5071570;28;20778;-61
2024/03/19 11:10:33;;;;;;;0.73;0.60;;;20.60;52.20;;;;;;5071318;28;20477;-61
2024/03/19 11:13:14;;;;;;;0.47;0.43;;;20.10;50.50;;;;;;5071530;28;20909;-61
2024/03/19 11:15:44;;;;;;;0.50;0.40;;;19.90;51.70;;;;;;5074360;28;20411;-61
2024/03/19 11:18:13;;;;;;;1.17;0.60;;;19.70;53.60;;;;;;5075256;28;20461;-61
2024/03/19 11:20:47;;;;;;;1.17;0.47;;;19.70;54.10;;;;;;5075231;28;20539;-61
2024/03/19 11:23:14;;;;;;;0.60;0.60;;;19.80;54.20;;;;;;5075854;28;20420;-61
2024/03/19 11:25:42;;;;;;;0.40;0.40;;;19.80;53.90;;;;;;5075356;28;20500;-61
2024/03/19 11:28:36;;;;;;;1.60;0.60;;;19.60;53.50;;;;;;5075098;28;20965;-61
2024/03/19 11:31:04;;;;;;;0.50;0.40;;;19.60;53.70;;;;;;5075313;28;20781;-61
2024/03/19 11:33:37;;;;;;;1.30;0.67;;;19.70;54.30;;;;;;5075093;28;21005;-61
2024/03/19 11:36:03;;;;;;;0.50;0.50;;;19.90;53.70;;;;;;5075238;28;20464;-61
2024/03/19 11:38:30;;;;;;;0.40;0.40;;;19.90;56.90;;;;;;5095310;22;20878;-59
2024/03/19 11:40:56;;;;;;;0.40;0.40;;;19.90;57.00;;;;;;5075183;28;21036;-57
2024/03/19 11:43:21;;;;;;;0.60;0.60;;;20.00;54.80;;;;;;5075232;28;20533;-57
2024/03/19 11:45:49;;;;;;;0.90;0.60;;;19.90;56.10;;;;;;5074936;28;20913;-57
2024/03/19 11:48:22;;;;;;;0.83;0.70;;;19.50;55.90;;;;;;5073361;28;20199;-57
2024/03/19 11:50:56;;;;;;;0.70;0.50;;;18.70;58.80;;;;;;5073603;28;20415;-58
2024/03/19 11:53:31;;;;;;;0.60;0.60;;;18.40;60.00;;;;;;5074827;28;20413;-57
2024/03/19 11:55:57;;;;;;;0.80;0.70;;;18.10;59.40;;;;;;5074810;28;20490;-57
2024/03/19 11:58:24;;;;;;;0.80;0.80;;;17.90;60.40;;;;;;5074279;28;20958;-57
2024/03/19 12:00:50;;;;;;;0.77;0.77;;;17.60;63.30;;;;;;5073301;28;20230;-58
2024/03/19 12:03:17;;;;;;;1.30;0.80;;;17.30;65.10;;;;;;5075025;28;20491;-58
2024/03/19 12:05:52;;;;;;;0.63;0.63;;;17.10;65.40;;;;;;5074595;28;20503;-56
2024/03/19 12:08:19;;;;;;;0.50;0.50;;;17.10;66.30;;;;;;5074442;28;20803;-56
2024/03/19 12:10:47;;;;;;;0.60;0.53;;;17.10;67.10;;;;;;5073083;28;20783;-57
2024/03/19 12:13:13;;;;;;;1.17;0.40;;;17.10;67.00;;;;;;5074306;28;21001;-57
2024/03/19 12:15:40;;;;;;;1.90;0.80;;;17.10;67.50;;;;;;5074462;28;20464;-57
2024/03/19 12:18:07;;;;;;;0.60;0.57;;;17.00;67.50;;;;;;5074334;28;20426;-57
2024/03/19 12:20:35;;;;;;;0.60;0.60;;;17.00;67.70;;;;;;5072938;28;20537;-57
2024/03/19 12:23:01;;;;;;;0.73;0.60;;;17.00;68.00;;;;;;5074330;28;20780;-57
2024/03/19 12:25:30;;;;;;;0.90;0.90;;;16.80;68.30;;;;;;5073762;28;20403;-57
2024/03/19 12:27:55;;;;;;;1.00;1.00;;;16.70;69.20;;;;;;5073341;28;20944;-57
2024/03/19 12:30:22;;;;;;;0.87;0.83;;;16.70;69.80;;;;;;5072715;28;20464;-57
2024/03/19 12:32:59;;;;;;;4.20;1.33;;;16.80;68.80;;;;;;5074309;28;20201;-57
2024/03/19 12:35:28;;;;;;;0.73;0.73;;;16.70;68.90;;;;;;5074032;28;20412;-57
2024/03/19 12:37:55;;;;;;;0.60;0.60;;;16.80;69.50;;;;;;5073661;28;20532;-58
2024/03/19 12:40:25;;;;;;;1.83;1.30;;;16.80;68.70;;;;;;5073790;28;20477;-58
2024/03/19 12:42:54;;;;;;;0.80;0.70;;;16.80;68.00;;;;;;5073941;28;20441;-58
2024/03/19 12:45:19;;;;;;;0.70;0.70;;;16.90;68.30;;;;;;5073891;28;20820;-58
2024/03/19 12:47:46;;;;;;;0.50;0.50;;;17.00;68.30;;;;;;5072457;28;20465;-58
2024/03/19 12:50:13;;;;;;;1.80;0.60;;;16.90;67.90;;;;;;5073557;28;20177;-58